createdAt,value
2023-04-09T06:01:27.159Z,5.62
2023-04-09T06:03:57.112Z,5.80
2023-04-09T06:06:24.688Z,5.94
2023-04-09T06:08:51.278Z,6.05
2023-04-09T06:11:17.784Z,6.15
2023-04-09T06:13:44.322Z,6.25
2023-04-09T06:16:10.801Z,6.36
2023-04-09T06:18:37.291Z,6.46
2023-04-09T06:21:04.682Z,6.59
2023-04-09T06:23:31.559Z,6.70
2023-04-09T06:25:57.962Z,6.84
2023-04-09T06:28:24.385Z,6.96
2023-04-09T06:30:50.852Z,7.08
2023-04-09T06:33:17.343Z,7.22
2023-04-09T06:35:43.811Z,7.35
2023-04-09T06:38:10.222Z,7.50
2023-04-09T06:40:38.551Z,7.60
2023-04-09T06:43:08.232Z,7.69
2023-04-09T06:45:51.977Z,7.82
2023-04-09T06:48:18.384Z,7.88
2023-04-09T06:50:45.259Z,7.97
2023-04-09T06:53:11.754Z,8.05
2023-04-09T06:55:38.259Z,8.12
2023-04-09T06:58:04.834Z,8.19
2023-04-09T07:00:31.636Z,8.28
2023-04-09T07:02:58.349Z,8.36
2023-04-09T07:05:24.978Z,8.44
2023-04-09T07:07:51.445Z,8.52
2023-04-09T07:10:17.938Z,8.60
2023-04-09T07:12:44.397Z,8.62
2023-04-09T07:15:10.814Z,8.62
2023-04-09T07:17:37.270Z,8.62
2023-04-09T07:20:03.952Z,8.62
2023-04-09T07:22:31.016Z,8.65
2023-04-09T07:24:57.614Z,8.69
2023-04-09T07:27:27.765Z,8.74
2023-04-09T07:29:55.740Z,8.76
2023-04-09T07:32:22.558Z,8.86
2023-04-09T07:34:51.382Z,8.91
2023-04-09T07:37:17.893Z,8.98
2023-04-09T07:39:44.788Z,9.06
2023-04-09T07:42:11.253Z,9.16
2023-04-09T07:44:38.604Z,9.24
2023-04-09T07:47:06.854Z,9.23
2023-04-09T07:49:33.577Z,9.27
2023-04-09T07:52:00.218Z,9.33
2023-04-09T07:54:26.720Z,9.30
2023-04-09T07:56:53.157Z,9.27
2023-04-09T07:59:19.550Z,9.24
2023-04-09T08:01:46.011Z,9.29
2023-04-09T08:04:13.505Z,9.35
2023-04-09T08:06:40.226Z,9.40
2023-04-09T08:09:07.098Z,9.40
2023-04-09T08:11:33.720Z,9.38
2023-04-09T08:14:04.477Z,9.41
2023-04-09T08:16:31.066Z,9.42
2023-04-09T08:18:57.660Z,9.44
2023-04-09T08:21:24.126Z,9.44
2023-04-09T08:23:51.148Z,9.46
2023-04-09T08:26:17.915Z,9.53
2023-04-09T08:28:44.594Z,9.64
2023-04-09T08:31:11.054Z,9.73
2023-04-09T08:33:37.571Z,9.84
2023-04-09T08:36:08.379Z,10.03
2023-04-09T08:38:34.828Z,10.23
2023-04-09T08:41:01.249Z,10.35
2023-04-09T08:43:41.907Z,10.42
2023-04-09T08:46:18.046Z,10.58
2023-04-09T08:48:46.403Z,10.63
2023-04-09T08:51:14.493Z,10.60
2023-04-09T08:53:44.973Z,10.63
2023-04-09T08:56:11.642Z,10.76
2023-04-09T08:58:39.778Z,10.86
2023-04-09T09:01:18.728Z,10.91
2023-04-09T09:03:59.216Z,10.93
2023-04-09T09:06:28.723Z,10.97
2023-04-09T09:09:16.138Z,11.02
2023-04-09T09:11:48.400Z,11.02
2023-04-09T09:14:16.988Z,11.07
2023-04-09T09:16:57.622Z,11.14
2023-04-09T09:19:24.157Z,11.18
2023-04-09T09:22:04.088Z,11.25
2023-04-09T09:24:32.223Z,11.31
2023-04-09T09:26:58.855Z,11.42
2023-04-09T09:29:25.888Z,11.50
2023-04-09T09:31:53.524Z,11.56
2023-04-09T09:34:22.033Z,11.61
2023-04-09T09:36:48.826Z,11.74
2023-04-09T09:39:17.271Z,11.90
2023-04-09T09:41:47.238Z,11.93
2023-04-09T09:44:31.551Z,11.87
2023-04-09T09:46:58.919Z,11.79
2023-04-09T09:49:25.420Z,11.71
2023-04-09T09:51:52.746Z,11.72
2023-04-09T09:54:22.483Z,11.80
2023-04-09T09:56:50.643Z,11.87
2023-04-09T09:59:24.620Z,11.99
2023-04-09T10:01:57.277Z,12.06
2023-04-09T10:04:24.425Z,12.21
2023-04-09T10:06:53.357Z,12.28
2023-04-09T10:09:21.279Z,12.28
2023-04-09T10:11:48.714Z,12.30
2023-04-09T10:14:16.933Z,12.37
2023-04-09T10:16:43.544Z,12.37
2023-04-09T10:19:13.997Z,12.48
2023-04-09T10:21:45.439Z,12.58
2023-04-09T10:24:12.025Z,12.61
2023-04-09T10:26:42.079Z,12.63
2023-04-09T10:29:13.873Z,12.72
2023-04-09T10:31:54.834Z,12.75
2023-04-09T10:34:23.377Z,12.76
2023-04-09T10:36:53.379Z,12.71
2023-04-09T10:39:19.879Z,12.74
2023-04-09T10:41:46.798Z,12.82
2023-04-09T10:44:35.929Z,12.75
2023-04-09T10:47:03.330Z,12.86
2023-04-09T10:49:39.028Z,12.94
2023-04-09T10:52:09.550Z,13.02
2023-04-09T10:54:38.911Z,13.02
2023-04-09T10:57:11.322Z,13.04
2023-04-09T10:59:41.075Z,13.05
2023-04-09T11:02:09.425Z,13.09
2023-04-09T11:05:17.970Z,13.05
2023-04-09T11:07:47.024Z,13.00
2023-04-09T11:10:13.501Z,12.97
2023-04-09T11:12:40.133Z,13.06
2023-04-09T11:15:07.076Z,13.08
2023-04-09T11:17:36.426Z,13.13
2023-04-09T11:20:03.561Z,13.15
2023-04-09T11:22:30.244Z,13.22
2023-04-09T11:24:56.827Z,13.31
2023-04-09T11:27:23.583Z,13.31
2023-04-09T11:29:55.645Z,13.29
2023-04-09T11:32:22.272Z,13.38
2023-04-09T11:34:48.767Z,13.36
2023-04-09T11:37:16.998Z,13.36
2023-04-09T11:39:46.817Z,13.40
2023-04-09T11:42:16.065Z,13.42
2023-04-09T11:44:42.651Z,13.60
2023-04-09T11:47:09.623Z,13.73
2023-04-09T11:49:36.113Z,13.77
2023-04-09T11:52:04.181Z,13.82
2023-04-09T11:54:34.141Z,13.85
2023-04-09T11:57:01.710Z,13.84
2023-04-09T11:59:28.193Z,13.77
2023-04-09T12:01:57.600Z,13.65
2023-04-09T12:04:24.570Z,13.57
2023-04-09T12:06:51.180Z,13.56
2023-04-09T12:09:17.789Z,13.62
2023-04-09T12:11:44.500Z,13.59
2023-04-09T12:14:16.244Z,13.62
2023-04-09T12:16:45.797Z,13.65
2023-04-09T12:19:12.851Z,13.77
2023-04-09T12:21:58.350Z,13.85
2023-04-09T12:24:25.985Z,13.85
2023-04-09T12:26:52.658Z,13.76
2023-04-09T12:29:20.806Z,13.68
2023-04-09T12:31:47.341Z,13.68
2023-04-09T12:34:14.055Z,13.67
2023-04-09T12:36:43.856Z,13.69
2023-04-09T12:39:10.455Z,13.75
2023-04-09T12:41:37.032Z,13.69
2023-04-09T12:44:03.506Z,13.72
2023-04-09T12:46:32.179Z,13.70
2023-04-09T12:48:58.744Z,13.67
2023-04-09T12:51:25.683Z,13.66
2023-04-09T12:53:52.442Z,13.66
2023-04-09T12:56:19.058Z,13.69
2023-04-09T12:58:45.594Z,13.69
2023-04-09T13:01:12.102Z,13.69
2023-04-09T13:03:41.144Z,13.72
2023-04-09T13:06:08.197Z,13.84
2023-04-09T13:08:34.677Z,13.93
2023-04-09T13:11:01.162Z,13.97
2023-04-09T13:13:28.668Z,13.95
2023-04-09T13:15:55.310Z,13.89
2023-04-09T13:18:21.709Z,13.76
2023-04-09T13:20:48.144Z,13.68
2023-04-09T13:23:14.583Z,13.55
2023-04-09T13:25:41.132Z,13.52
2023-04-09T13:28:07.688Z,13.43
2023-04-09T13:30:34.209Z,13.42
2023-04-09T13:33:00.710Z,13.49
2023-04-09T13:35:27.242Z,13.49
2023-04-09T13:37:53.738Z,13.55
2023-04-09T13:40:20.170Z,13.64
2023-04-09T13:42:46.809Z,13.71
2023-04-09T13:45:13.242Z,13.85
2023-04-09T13:47:39.714Z,13.93
2023-04-09T13:50:07.362Z,14.02
2023-04-09T13:52:33.844Z,14.14
2023-04-09T13:55:00.471Z,14.19
2023-04-09T13:57:27.222Z,14.20
2023-04-09T13:59:53.647Z,14.15
2023-04-09T14:02:20.500Z,14.16
2023-04-09T14:04:47.410Z,14.20
2023-04-09T14:07:13.852Z,14.35
2023-04-09T14:09:40.385Z,14.53
2023-04-09T14:12:07.015Z,14.62
2023-04-09T14:14:33.455Z,14.69
2023-04-09T14:17:00.024Z,14.78
2023-04-09T14:19:26.560Z,14.90
2023-04-09T14:21:55.144Z,15.06
2023-04-09T14:24:23.033Z,15.25
2023-04-09T14:26:51.362Z,15.44
2023-04-09T14:29:17.765Z,15.61
2023-04-09T14:31:44.321Z,15.57
2023-04-09T14:34:10.875Z,15.58
2023-04-09T14:36:37.402Z,15.63
2023-04-09T14:39:03.995Z,15.69
2023-04-09T14:41:30.606Z,15.80
2023-04-09T14:43:57.043Z,15.92
2023-04-09T14:46:23.540Z,16.05
2023-04-09T14:48:50.314Z,16.27
2023-04-09T14:51:17.082Z,16.35
2023-04-09T14:53:43.825Z,16.42
2023-04-09T14:56:10.257Z,16.44
2023-04-09T14:58:36.674Z,16.39
2023-04-09T15:01:04.158Z,16.39
2023-04-09T15:03:30.796Z,16.42
2023-04-09T15:05:57.340Z,16.48
2023-04-09T15:08:23.901Z,16.52
2023-04-09T15:10:51.070Z,16.55
2023-04-09T15:13:17.507Z,16.71
2023-04-09T15:15:44.789Z,16.80
2023-04-09T15:18:11.272Z,16.81
2023-04-09T15:20:38.995Z,16.87
2023-04-09T15:23:05.449Z,16.81
2023-04-09T15:25:32.618Z,16.67
2023-04-09T15:27:59.230Z,16.86
2023-04-09T15:30:26.387Z,17.02
2023-04-09T15:32:52.981Z,17.00
2023-04-09T15:35:24.814Z,17.01
2023-04-09T15:37:51.696Z,16.95
2023-04-09T15:40:18.691Z,16.95
2023-04-09T15:42:45.238Z,16.97
2023-04-09T15:45:12.722Z,16.92
2023-04-09T15:47:39.185Z,16.86
2023-04-09T15:50:06.177Z,16.84
2023-04-09T15:52:32.710Z,16.98
2023-04-09T15:54:59.220Z,17.12
2023-04-09T15:57:25.674Z,17.16
2023-04-09T15:59:52.504Z,17.03
2023-04-09T16:02:19.394Z,16.78
2023-04-09T16:04:45.985Z,16.60
2023-04-09T16:07:16.051Z,16.32
2023-04-09T16:09:42.756Z,16.18
2023-04-09T16:12:09.359Z,16.12
2023-04-09T16:14:36.385Z,15.96
2023-04-09T16:17:02.862Z,15.82
2023-04-09T16:19:29.412Z,15.78
2023-04-09T16:21:57.554Z,15.70
2023-04-09T16:24:23.930Z,15.62
2023-04-09T16:26:50.379Z,15.48
2023-04-09T16:29:17.729Z,15.36
2023-04-09T16:31:44.265Z,15.23
2023-04-09T16:34:10.903Z,15.10
2023-04-09T16:36:37.421Z,15.01
2023-04-09T16:39:05.025Z,14.86
2023-04-09T16:41:31.811Z,14.75
2023-04-09T16:43:58.284Z,14.67
2023-04-09T16:46:25.010Z,14.65
2023-04-09T16:48:51.742Z,14.66
2023-04-09T16:51:18.352Z,14.70
2023-04-09T16:53:44.829Z,14.70
2023-04-09T16:56:11.399Z,14.71
2023-04-09T16:58:37.942Z,14.74
2023-04-09T17:01:04.808Z,14.72
2023-04-09T17:03:31.396Z,14.77
2023-04-09T17:05:57.990Z,14.72
2023-04-09T17:08:24.486Z,14.69
2023-04-09T17:10:51.823Z,14.66
2023-04-09T17:13:18.235Z,14.61
2023-04-09T17:15:44.673Z,14.49
2023-04-09T17:18:11.494Z,14.33
2023-04-09T17:20:37.948Z,14.17
2023-04-09T17:23:04.726Z,14.07
2023-04-09T17:25:31.125Z,14.02
2023-04-09T17:27:57.862Z,13.95
2023-04-09T17:30:24.290Z,13.92
2023-04-09T17:32:51.006Z,13.89
2023-04-09T17:35:17.577Z,13.87
2023-04-09T17:37:44.006Z,13.81
2023-04-09T17:40:12.470Z,13.76
2023-04-09T17:42:38.939Z,13.73
2023-04-09T17:45:06.552Z,13.67
2023-04-09T17:47:33.082Z,13.60
2023-04-09T17:49:59.842Z,13.51
2023-04-09T17:52:26.417Z,13.39
2023-04-09T17:54:52.980Z,13.27
2023-04-09T17:57:19.539Z,13.09
2023-04-09T17:59:46.113Z,12.93
2023-04-09T18:02:12.745Z,12.71
2023-04-09T18:04:39.510Z,12.52
2023-04-09T18:07:06.102Z,12.37
2023-04-09T18:09:32.746Z,12.21
2023-04-09T18:12:01.189Z,12.08
2023-04-09T18:14:27.663Z,11.93
2023-04-09T18:16:54.578Z,11.78
2023-04-09T18:19:21.258Z,11.67
2023-04-09T18:21:47.722Z,11.55
2023-04-09T18:24:14.158Z,11.41
2023-04-09T18:26:40.742Z,11.31
2023-04-09T18:29:08.355Z,11.21
2023-04-09T18:31:34.837Z,11.19
2023-04-09T18:34:01.384Z,11.11
2023-04-09T18:36:28.207Z,11.03
2023-04-09T18:38:55.931Z,10.90
2023-04-09T18:41:26.142Z,10.77
2023-04-09T18:43:53.068Z,10.66
2023-04-09T18:46:19.633Z,10.54
2023-04-09T18:48:49.114Z,10.44
2023-04-09T18:51:15.492Z,10.36
2023-04-09T18:53:42.302Z,10.25
2023-04-09T18:56:09.314Z,10.16
2023-04-09T18:58:36.251Z,10.07
2023-04-09T19:01:10.908Z,9.99
2023-04-09T19:03:37.910Z,9.93
2023-04-09T19:06:15.645Z,9.82
2023-04-09T19:08:42.188Z,9.76
2023-04-09T19:11:08.917Z,9.70
2023-04-09T19:13:36.714Z,9.63
2023-04-09T19:16:03.607Z,9.55
2023-04-09T19:18:30.967Z,9.51
2023-04-09T19:20:57.557Z,9.44
2023-04-09T19:23:24.520Z,9.41
2023-04-09T19:25:55.016Z,9.38
2023-04-09T19:28:22.196Z,9.33
2023-04-09T19:30:52.188Z,9.26
2023-04-09T19:33:20.833Z,9.23
2023-04-09T19:35:51.713Z,9.18
2023-04-09T19:38:19.216Z,9.13
2023-04-09T19:40:46.127Z,9.08
2023-04-09T19:43:12.702Z,9.04
2023-04-09T19:45:39.721Z,9.00
2023-04-09T19:48:07.084Z,8.96
2023-04-09T19:50:38.840Z,8.93
2023-04-09T19:53:08.187Z,8.91
2023-04-09T19:55:35.239Z,8.88
2023-04-09T19:58:02.445Z,8.86
2023-04-09T20:00:33.263Z,8.83
2023-04-09T20:03:00.568Z,8.79
2023-04-09T20:05:29.045Z,8.80
2023-04-09T20:10:41.113Z,8.72
2023-04-09T20:13:08.807Z,8.67
2023-04-09T20:15:35.842Z,8.65
2023-04-09T20:18:02.670Z,8.62
2023-04-09T20:20:38.839Z,8.59
2023-04-09T20:23:05.855Z,8.56
2023-04-09T20:25:37.890Z,8.53
2023-04-09T20:28:04.802Z,8.50
2023-04-09T20:30:32.216Z,8.48
2023-04-09T20:33:00.227Z,8.48
2023-04-09T20:35:27.310Z,8.42
2023-04-09T20:37:55.201Z,8.41
2023-04-09T20:40:22.314Z,8.37
2023-04-09T20:42:52.428Z,8.39
2023-04-09T20:45:19.242Z,8.33
2023-04-09T20:47:46.727Z,8.30
2023-04-09T20:50:13.671Z,8.26
2023-04-09T20:52:40.606Z,8.25
2023-04-09T20:55:07.750Z,8.19
2023-04-09T20:57:34.574Z,8.16
2023-04-09T21:00:01.632Z,8.15
2023-04-09T21:02:33.528Z,8.14
2023-04-09T21:05:08.390Z,8.11
2023-04-09T21:07:48.163Z,8.11
2023-04-09T21:10:17.648Z,8.09
2023-04-09T21:12:44.390Z,8.04
2023-04-09T21:15:11.508Z,8.03
2023-04-09T21:23:51.696Z,7.96
2023-04-09T21:26:21.074Z,7.93
2023-04-09T21:31:52.397Z,7.90
2023-04-09T21:34:19.246Z,7.87
2023-04-09T21:36:47.310Z,7.81
2023-04-09T21:39:18.235Z,7.78
2023-04-09T21:41:47.501Z,7.78
2023-04-09T21:44:14.610Z,7.75
2023-04-09T21:46:41.790Z,7.71
2023-04-09T21:49:08.697Z,7.71
2023-04-09T21:51:35.789Z,7.69
2023-04-09T21:54:08.821Z,7.67
2023-04-09T21:56:38.883Z,7.67
2023-04-09T22:02:20.285Z,7.63
2023-04-09T22:04:47.382Z,7.60
2023-04-09T22:07:14.386Z,7.60
2023-04-09T22:09:41.334Z,7.57
2023-04-09T22:12:10.468Z,7.55
2023-04-09T22:14:37.590Z,7.52
2023-04-09T22:17:05.448Z,7.56
2023-04-09T22:19:35.463Z,7.52
2023-04-09T22:22:02.252Z,7.51
2023-04-09T22:24:30.271Z,7.48
2023-04-09T22:26:58.954Z,7.47
2023-04-09T22:29:26.715Z,7.43
2023-04-09T22:31:54.207Z,7.42
2023-04-09T22:34:22.080Z,7.41
2023-04-09T22:36:50.686Z,7.38
2023-04-09T22:51:15.637Z,7.28
2023-04-09T22:53:42.479Z,7.28
2023-04-09T22:56:11.473Z,7.28
2023-04-09T23:01:23.507Z,7.21
2023-04-09T23:03:50.368Z,7.23
2023-04-09T23:06:17.352Z,7.21
2023-04-09T23:08:44.294Z,7.21
2023-04-09T23:11:11.511Z,7.17
2023-04-09T23:13:38.743Z,7.19
2023-04-09T23:16:08.801Z,7.15
2023-04-09T23:55:23.002Z,6.98
